createdAt,value
2023-02-24T00:02:46.485Z,3.9
2023-02-24T00:05:46.426Z,4
2023-02-24T00:08:46.423Z,3.4
2023-02-24T00:11:46.422Z,3.8
2023-02-24T00:14:46.447Z,3.7
2023-02-24T00:17:46.433Z,4
2023-02-24T00:20:46.422Z,3.4
2023-02-24T00:23:46.427Z,3.6
2023-02-24T00:26:46.427Z,4
2023-02-24T00:29:46.433Z,3.7
2023-02-24T00:32:46.590Z,3.6
2023-02-24T00:35:46.446Z,3.8
2023-02-24T00:38:46.448Z,3.6
2023-02-24T00:41:46.445Z,3.6
2023-02-24T00:44:46.450Z,3.6
2023-02-24T00:47:46.461Z,3.8
2023-02-24T00:50:46.484Z,3.7
2023-02-24T00:53:46.454Z,3.4
2023-02-24T00:56:46.475Z,3.7
2023-02-24T00:59:46.465Z,3.5
2023-02-24T01:02:46.462Z,3.3
2023-02-24T01:05:46.465Z,4
2023-02-24T01:08:46.489Z,3.5
2023-02-24T01:11:46.514Z,3.4
2023-02-24T01:14:46.477Z,3.9
2023-02-24T01:17:46.488Z,3.7
2023-02-24T01:20:46.476Z,3.6
2023-02-24T01:23:46.477Z,3.7
2023-02-24T01:26:46.494Z,4
2023-02-24T01:29:46.478Z,3.8
2023-02-24T01:32:46.773Z,3.6
2023-02-24T01:35:46.479Z,3.8
2023-02-24T01:38:46.484Z,3.8
2023-02-24T01:41:46.489Z,3.7
2023-02-24T01:44:46.531Z,3.3
2023-02-24T01:47:46.490Z,3.9
2023-02-24T01:50:46.503Z,4
2023-02-24T01:53:46.495Z,3.1
2023-02-24T01:56:46.504Z,3.5
2023-02-24T01:59:46.517Z,3.2
2023-02-24T02:02:46.734Z,3.3
2023-02-24T02:05:46.501Z,3.4
2023-02-24T02:08:46.505Z,3.4
2023-02-24T02:11:46.504Z,3.5
2023-02-24T02:14:46.510Z,3.4
2023-02-24T02:17:46.509Z,3
2023-02-24T02:20:46.528Z,3.4
2023-02-24T02:23:46.508Z,4
2023-02-24T02:26:46.511Z,3.3
2023-02-24T02:29:46.510Z,3.2
2023-02-24T02:32:46.608Z,3.2
2023-02-24T02:35:46.535Z,3.2
2023-02-24T02:38:46.546Z,3
2023-02-24T02:41:46.524Z,3.3
2023-02-24T02:44:46.517Z,3.3
2023-02-24T02:47:46.521Z,3.3
2023-02-24T02:50:46.519Z,3.2
2023-02-24T02:53:46.534Z,3.1
2023-02-24T02:56:46.540Z,3
2023-02-24T02:59:46.518Z,3.3
2023-02-24T03:02:46.521Z,3.2
2023-02-24T03:05:46.533Z,2.8
2023-02-24T03:08:46.534Z,2.9
2023-02-24T03:11:46.531Z,3
2023-02-24T03:14:46.569Z,2.9
2023-02-24T03:17:46.554Z,2.7
2023-02-24T03:20:46.542Z,3.2
2023-02-24T03:23:46.545Z,2.8
2023-02-24T03:26:46.543Z,2.8
2023-02-24T03:29:46.549Z,3.3
2023-02-24T03:32:46.643Z,2.5
2023-02-24T03:35:46.554Z,2.8
2023-02-24T03:38:46.558Z,2.6
2023-02-24T03:41:46.557Z,2.9
2023-02-24T03:44:46.575Z,2.7
2023-02-24T03:47:46.716Z,2.6
2023-02-24T03:50:46.592Z,2.6
2023-02-24T03:53:46.574Z,2.6
2023-02-24T03:56:46.571Z,2.6
2023-02-24T03:59:46.577Z,2.3
2023-02-24T04:02:46.640Z,2.4
2023-02-24T04:05:46.578Z,2.6
2023-02-24T04:08:46.597Z,2.4
2023-02-24T04:11:46.581Z,2.4
2023-02-24T04:14:46.586Z,2
2023-02-24T04:17:46.630Z,2.2
2023-02-24T04:20:46.600Z,2.1
2023-02-24T04:23:46.598Z,1.9
2023-02-24T04:26:46.623Z,2.2
2023-02-24T04:29:46.604Z,2.2
2023-02-24T04:32:46.667Z,2.2
2023-02-24T04:35:46.617Z,2.4
2023-02-24T04:38:46.614Z,2.3
2023-02-24T04:41:46.614Z,2.5
2023-02-24T04:44:46.669Z,2.2
2023-02-24T04:47:46.616Z,2.3
2023-02-24T04:50:46.624Z,2.2
2023-02-24T04:53:46.624Z,2.4
2023-02-24T04:56:46.623Z,2.2
2023-02-24T04:59:46.630Z,2.2
2023-02-24T05:02:46.658Z,2.2
2023-02-24T05:05:46.639Z,2.1
2023-02-24T05:08:46.652Z,2.1
2023-02-24T05:11:46.642Z,2.1
2023-02-24T05:14:46.649Z,2.2
2023-02-24T05:17:46.649Z,2.1
2023-02-24T05:20:46.700Z,2.3
2023-02-24T05:23:46.823Z,1.9
2023-02-24T05:26:46.681Z,2.6
2023-02-24T05:29:46.673Z,2
2023-02-24T05:32:46.751Z,2.4
2023-02-24T05:35:46.679Z,2.4
2023-02-24T05:38:46.703Z,2.3
2023-02-24T05:41:46.683Z,2.1
2023-02-24T05:44:46.692Z,2.3
2023-02-24T05:47:46.689Z,2.4
2023-02-24T05:50:46.701Z,2.3
2023-02-24T05:53:46.696Z,2.4
2023-02-24T05:56:46.732Z,2.1
2023-02-24T05:59:46.698Z,2
2023-02-24T06:02:46.714Z,1.9
2023-02-24T06:05:46.709Z,2
2023-02-24T06:08:46.710Z,2.1
2023-02-24T06:11:46.787Z,2
2023-02-24T06:14:46.742Z,2.1
2023-02-24T06:17:46.718Z,1.9
2023-02-24T06:20:46.719Z,1.9
2023-02-24T06:23:46.725Z,1.8
2023-02-24T06:26:46.728Z,1.8
2023-02-24T06:29:46.736Z,2
2023-02-24T06:32:46.882Z,2.1
2023-02-24T06:35:46.747Z,1.8
2023-02-24T06:38:46.750Z,1.8
2023-02-24T06:41:46.747Z,2
2023-02-24T06:44:46.765Z,1.9
2023-02-24T06:47:46.765Z,1.8
2023-02-24T06:50:46.792Z,1.5
2023-02-24T06:53:46.772Z,1.6
2023-02-24T06:56:46.775Z,1.6
2023-02-24T06:59:46.786Z,1.6
2023-02-24T07:02:46.792Z,1.9
2023-02-24T07:05:46.795Z,1.9
2023-02-24T07:08:46.854Z,1.7
2023-02-24T07:11:46.984Z,2
2023-02-24T07:14:46.811Z,1.9
2023-02-24T07:17:48.293Z,1.8
2023-02-24T07:20:46.818Z,2
2023-02-24T07:23:46.823Z,1.8
2023-02-24T07:26:46.853Z,1.8
2023-02-24T07:29:46.835Z,1.5
2023-02-24T07:32:46.911Z,1.8
2023-02-24T07:35:46.848Z,1.7
2023-02-24T07:38:46.855Z,1.5
2023-02-24T07:41:46.904Z,1.5
2023-02-24T07:44:47.055Z,1.6
2023-02-24T07:47:46.866Z,1.5
2023-02-24T07:50:46.876Z,1.4
2023-02-24T07:53:46.872Z,1.5
2023-02-24T07:56:46.878Z,1.6
2023-02-24T07:59:47.711Z,1.7
2023-02-24T08:02:46.992Z,1.5
2023-02-24T08:05:46.946Z,1.6
2023-02-24T08:08:46.898Z,1.5
2023-02-24T08:11:46.901Z,1.6
2023-02-24T08:14:46.906Z,1.5
2023-02-24T08:17:46.913Z,1.7
2023-02-24T08:20:46.945Z,1.7
2023-02-24T08:23:46.922Z,1.5
2023-02-24T08:26:46.944Z,1.4
2023-02-24T08:29:46.940Z,1.4
2023-02-24T08:32:47.180Z,1.6
2023-02-24T08:35:46.949Z,1.3
2023-02-24T08:38:46.980Z,1.4
2023-02-24T08:41:46.965Z,1.4
2023-02-24T08:44:46.968Z,1.3
2023-02-24T08:47:46.972Z,1.4
2023-02-24T08:50:46.985Z,1.6
2023-02-24T08:53:47.366Z,1.4
2023-02-24T08:56:47.015Z,1.4
2023-02-24T08:59:46.997Z,1.4
2023-02-24T09:02:47.001Z,1.3
2023-02-24T09:05:47.011Z,1.4
2023-02-24T09:08:47.023Z,1.4
2023-02-24T09:11:47.033Z,1.3
2023-02-24T09:14:47.061Z,1.5
2023-02-24T09:17:47.047Z,1.5
2023-02-24T09:20:47.043Z,1.5
2023-02-24T09:23:47.050Z,1.4
2023-02-24T09:26:47.057Z,1.3
2023-02-24T09:29:47.061Z,1.7
2023-02-24T09:32:47.181Z,1.7
2023-02-24T09:35:47.072Z,1.5
2023-02-24T09:38:47.077Z,1.7
2023-02-24T09:41:47.082Z,1.7
2023-02-24T09:44:47.091Z,1.8
2023-02-24T09:47:47.100Z,1.9
2023-02-24T09:51:01.865Z,1.7
2023-02-24T09:53:47.111Z,1.8
2023-02-24T09:56:47.117Z,2.1
2023-02-24T09:59:48.853Z,1.7
2023-02-24T10:02:47.227Z,2
2023-02-24T10:05:49.371Z,1.9
2023-02-24T10:08:47.171Z,2.2
2023-02-24T10:11:48.449Z,2
2023-02-24T10:14:51.072Z,2.1
2023-02-24T10:17:47.194Z,2.4
2023-02-24T10:20:47.184Z,2.2
2023-02-24T10:23:47.186Z,2.6
2023-02-24T10:26:59.933Z,2.7
2023-02-24T10:29:47.195Z,2.6
2023-02-24T10:32:47.435Z,2.7
2023-02-24T10:35:47.214Z,2.7
2023-02-24T10:38:47.221Z,2.7
2023-02-24T10:41:47.343Z,2.7
2023-02-24T10:44:51.133Z,3
2023-02-24T10:47:47.242Z,2.8
2023-02-24T10:50:55.824Z,3.1
2023-02-24T10:53:47.260Z,3.4
2023-02-24T10:56:47.264Z,3.2
2023-02-24T10:59:47.327Z,3.2
2023-02-24T11:02:47.334Z,3.3
2023-02-24T11:05:47.287Z,4
2023-02-24T11:08:47.293Z,3.5
2023-02-24T11:11:47.298Z,3.6
2023-02-24T11:14:47.307Z,3.9
2023-02-24T11:17:47.377Z,3.8
2023-02-24T11:20:49.639Z,3.9
2023-02-24T11:23:47.328Z,3.6
2023-02-24T11:26:47.338Z,4.1
2023-02-24T11:29:47.341Z,4
2023-02-24T11:32:47.419Z,4.1
2023-02-24T11:35:47.357Z,3.8
2023-02-24T11:38:47.380Z,4.3
2023-02-24T11:41:47.361Z,4.8
2023-02-24T11:44:47.373Z,4.3
2023-02-24T11:47:47.371Z,4.2
2023-02-24T11:50:47.412Z,4.4
2023-02-24T11:53:47.387Z,3.8
2023-02-24T11:56:47.417Z,4.3
2023-02-24T11:59:47.393Z,4
2023-02-24T12:02:47.481Z,4.3
2023-02-24T12:05:47.483Z,3.9
2023-02-24T12:08:47.407Z,4.1
2023-02-24T12:11:47.406Z,4.4
2023-02-24T12:14:47.469Z,4.2
2023-02-24T12:17:47.411Z,4.4
2023-02-24T12:20:47.416Z,4.3
2023-02-24T12:23:47.422Z,4.1
2023-02-24T12:26:47.425Z,4
2023-02-24T12:29:47.422Z,4.4
2023-02-24T12:32:47.533Z,4.1
2023-02-24T12:35:47.434Z,3.7
2023-02-24T12:38:47.432Z,3.7
2023-02-24T12:41:47.443Z,3.7
2023-02-24T12:44:47.439Z,4.1
2023-02-24T12:47:47.439Z,3.7
2023-02-24T12:50:47.471Z,3.5
2023-02-24T12:53:47.441Z,3.5
2023-02-24T12:56:47.449Z,4
2023-02-24T12:59:47.454Z,3.8
2023-02-24T13:02:47.452Z,3.9
2023-02-24T13:05:47.448Z,3.7
2023-02-24T13:08:47.477Z,3.6
2023-02-24T13:11:47.450Z,3.9
2023-02-24T13:14:47.457Z,3.9
2023-02-24T13:17:47.460Z,4
2023-02-24T13:20:47.463Z,4.1
2023-02-24T13:23:47.465Z,4.2
2023-02-24T13:26:47.494Z,4.6
2023-02-24T13:29:47.488Z,4.3
2023-02-24T13:32:47.688Z,4.3
2023-02-24T13:35:47.512Z,4.6
2023-02-24T13:38:47.508Z,5
2023-02-24T13:41:47.519Z,5.2
2023-02-24T13:44:47.553Z,5.4
2023-02-24T13:47:47.538Z,5.9
2023-02-24T13:50:47.551Z,6.4
2023-02-24T13:53:47.565Z,6.4
2023-02-24T13:56:47.579Z,6.8
2023-02-24T13:59:47.583Z,6.8
2023-02-24T14:02:47.660Z,7
2023-02-24T14:05:47.601Z,7.1
2023-02-24T14:08:47.612Z,7.6
2023-02-24T14:11:47.620Z,8
2023-02-24T14:14:47.634Z,7.8
2023-02-24T14:17:47.647Z,7.5
2023-02-24T14:20:47.677Z,7.6
2023-02-24T14:23:47.665Z,8
2023-02-24T14:26:47.672Z,8.2
2023-02-24T14:29:47.688Z,8.2
2023-02-24T14:32:47.777Z,8.1
2023-02-24T14:35:47.708Z,8.6
2023-02-24T14:38:47.757Z,8.5
2023-02-24T14:41:47.729Z,8.6
2023-02-24T14:44:47.737Z,9.2
2023-02-24T14:47:47.752Z,9.5
2023-02-24T14:50:47.762Z,10.1
2023-02-24T14:53:47.776Z,9.9
2023-02-24T14:56:47.811Z,11
2023-02-24T14:59:47.792Z,11.2
2023-02-24T15:02:47.841Z,11.2
2023-02-24T15:05:47.818Z,11.6
2023-02-24T15:08:47.828Z,11.6
2023-02-24T15:11:47.844Z,11.8
2023-02-24T15:14:47.891Z,12
2023-02-24T15:17:47.865Z,11.9
2023-02-24T15:20:47.891Z,11.6
2023-02-24T15:23:47.898Z,11.6
2023-02-24T15:26:47.905Z,12
2023-02-24T15:29:47.923Z,11.5
2023-02-24T15:32:48.077Z,11.4
2023-02-24T15:35:47.958Z,11.8
2023-02-24T15:38:47.958Z,11.5
2023-02-24T15:41:47.974Z,11.8
2023-02-24T15:44:47.974Z,11.8
2023-02-24T15:47:47.982Z,12.4
2023-02-24T15:50:48.009Z,12.2
2023-02-24T15:53:47.998Z,12.3
2023-02-24T15:56:48.111Z,11.8
2023-02-24T15:59:48.016Z,12.3
2023-02-24T16:02:48.023Z,12.7
2023-02-24T16:05:48.032Z,12.7
2023-02-24T16:08:48.069Z,12.6
2023-02-24T16:11:48.046Z,12.8
2023-02-24T16:14:48.056Z,13.8
2023-02-24T16:17:48.060Z,13.3
2023-02-24T16:20:48.109Z,13.4
2023-02-24T16:23:48.084Z,14.4
2023-02-24T16:26:48.100Z,14.7
2023-02-24T16:29:48.080Z,15.4
2023-02-24T16:32:48.210Z,15.6
2023-02-24T16:35:48.096Z,15.9
2023-02-24T16:38:48.098Z,15.8
2023-02-24T16:41:48.113Z,16.4
2023-02-24T16:44:48.137Z,17.2
2023-02-24T16:47:48.115Z,17.6
2023-02-24T16:50:48.126Z,18.3
2023-02-24T16:53:48.132Z,18.7
2023-02-24T16:56:48.133Z,18.6
2023-02-24T16:59:48.138Z,18.4
2023-02-24T17:02:48.166Z,18.3
2023-02-24T17:05:48.152Z,17.7
2023-02-24T17:08:48.153Z,17.3
2023-02-24T17:11:48.161Z,17.4
2023-02-24T17:14:48.164Z,16.7
2023-02-24T17:17:48.177Z,16.8
2023-02-24T17:20:48.210Z,16.6
2023-02-24T17:23:48.197Z,15.8
2023-02-24T17:26:48.191Z,16.5
2023-02-24T17:29:48.210Z,16.8
2023-02-24T17:32:48.261Z,16.5
2023-02-24T17:35:48.236Z,16.6
2023-02-24T17:38:48.231Z,17.2
2023-02-24T17:41:48.212Z,17.4
2023-02-24T17:44:48.218Z,17.7
2023-02-24T17:47:48.223Z,18.2
2023-02-24T17:50:48.232Z,17.8
2023-02-24T17:53:48.227Z,17.3
2023-02-24T17:56:48.265Z,17.5
2023-02-24T17:59:48.237Z,17.3
2023-02-24T18:02:48.329Z,17.2
2023-02-24T18:05:48.240Z,17.2
2023-02-24T18:08:48.251Z,16.7
2023-02-24T18:11:48.246Z,16.6
2023-02-24T18:14:53.478Z,16.6
2023-02-24T18:17:48.316Z,16.7
2023-02-24T18:20:48.269Z,16.8
2023-02-24T18:23:48.272Z,17.9
2023-02-24T18:26:48.267Z,16.3
2023-02-24T18:29:48.274Z,16.1
2023-02-24T18:32:48.495Z,16.7
2023-02-24T18:35:48.296Z,18.2
2023-02-24T18:38:48.292Z,17.1
2023-02-24T18:41:48.294Z,17.5
2023-02-24T18:44:48.299Z,17.5
2023-02-24T18:47:48.304Z,16.7
2023-02-24T18:50:48.336Z,17.5
2023-02-24T18:53:49.302Z,17.4
2023-02-24T18:56:48.417Z,16.8
2023-02-24T18:59:48.320Z,17.8
2023-02-24T19:02:48.366Z,17.1
2023-02-24T19:05:48.344Z,17.5
2023-02-24T19:08:48.367Z,17.3
2023-02-24T19:11:48.343Z,17.6
2023-02-24T19:14:48.341Z,19.4
2023-02-24T19:17:48.356Z,18
2023-02-24T19:20:48.349Z,16.8
2023-02-24T19:23:48.355Z,18.4
2023-02-24T19:26:48.385Z,17.2
2023-02-24T19:29:48.364Z,17
2023-02-24T19:32:48.477Z,17.3
2023-02-24T19:35:48.372Z,16
2023-02-24T19:38:48.411Z,14.7
2023-02-24T19:41:49.746Z,11.8
2023-02-24T19:44:48.404Z,10.8
2023-02-24T19:47:48.419Z,9.1
2023-02-24T19:50:48.391Z,7.8
2023-02-24T19:53:48.396Z,7.4
2023-02-24T19:56:48.408Z,6.8
2023-02-24T19:59:48.410Z,6.2
2023-02-24T20:02:48.439Z,6
2023-02-24T20:05:48.416Z,5.7
2023-02-24T20:08:48.442Z,5.2
2023-02-24T20:11:48.431Z,4.9
2023-02-24T20:14:48.440Z,5
2023-02-24T20:17:49.804Z,4.3
2023-02-24T20:20:48.472Z,3.8
2023-02-24T20:23:48.449Z,3.8
2023-02-24T20:26:48.456Z,4.2
2023-02-24T20:29:48.457Z,3.9
2023-02-24T20:32:48.674Z,3.9
2023-02-24T20:35:48.468Z,3.4
2023-02-24T20:38:48.484Z,3.5
2023-02-24T20:41:48.469Z,3.7
2023-02-24T20:44:48.474Z,3.6
2023-02-24T20:47:48.487Z,3.5
2023-02-24T20:50:48.486Z,3.9
2023-02-24T20:53:57.122Z,3.7
2023-02-24T20:56:48.523Z,4
2023-02-24T21:00:02.474Z,3.2
2023-02-24T21:02:48.505Z,3.9
2023-02-24T21:05:48.514Z,3.9
2023-02-24T21:08:48.510Z,4.3
2023-02-24T21:11:48.515Z,4.1
2023-02-24T21:14:48.546Z,4.1
2023-02-24T21:17:48.525Z,4.2
2023-02-24T21:20:48.530Z,4.2
2023-02-24T21:23:48.534Z,4.5
2023-02-24T21:26:48.535Z,4.5
2023-02-24T21:29:48.534Z,4
2023-02-24T21:32:48.673Z,4
2023-02-24T21:35:48.544Z,3.8
2023-02-24T21:38:48.546Z,3.4
2023-02-24T21:41:48.547Z,3.4
2023-02-24T21:44:48.550Z,3.4
2023-02-24T21:47:48.560Z,3.5
2023-02-24T21:50:48.601Z,3.4
2023-02-24T21:53:48.572Z,3.3
2023-02-24T21:56:48.584Z,3
2023-02-24T21:59:48.576Z,3.5
2023-02-24T22:02:48.608Z,3.3
2023-02-24T22:05:48.581Z,3.3
2023-02-24T22:08:48.608Z,3.6
2023-02-24T22:11:48.597Z,3.8
2023-02-24T22:14:48.600Z,3.4
2023-02-24T22:17:48.611Z,4.3
2023-02-24T22:20:48.616Z,3.8
2023-02-24T22:23:48.609Z,4.1
2023-02-24T22:26:48.646Z,3.7
2023-02-24T22:29:48.645Z,4.4
2023-02-24T22:32:48.668Z,4
2023-02-24T22:35:48.637Z,4.1
2023-02-24T22:38:48.646Z,4.3
2023-02-24T22:41:48.674Z,4.3
2023-02-24T22:44:48.681Z,4.4
2023-02-24T22:47:48.690Z,4.2
2023-02-24T22:50:48.669Z,4.7
2023-02-24T22:53:48.681Z,4.9
2023-02-24T22:56:48.671Z,4.8
2023-02-24T22:59:48.675Z,4.4
2023-02-24T23:02:48.695Z,4.5
2023-02-24T23:05:48.675Z,4.8
2023-02-24T23:08:48.687Z,4.6
2023-02-24T23:11:48.703Z,5.3
2023-02-24T23:14:48.688Z,5.1
2023-02-24T23:17:48.703Z,5.1
2023-02-24T23:20:48.728Z,5.2
2023-02-24T23:23:48.702Z,5.1
2023-02-24T23:26:48.705Z,5
2023-02-24T23:29:48.714Z,5.1
2023-02-24T23:32:48.748Z,5.3
2023-02-24T23:35:48.716Z,5.2
2023-02-24T23:38:48.757Z,4.9
2023-02-24T23:41:48.733Z,5
2023-02-24T23:44:48.746Z,4.7
2023-02-24T23:47:48.756Z,4.7
2023-02-24T23:50:48.754Z,4.7
2023-02-24T23:53:48.773Z,4.5
2023-02-24T23:56:48.790Z,4
2023-02-24T23:59:48.774Z,4.2
